createdAt,value
2019-01-30T00:02:18.314Z,1.30
2019-01-30T00:04:47.734Z,1.30
2019-01-30T00:07:17.133Z,1.30
2019-01-30T00:09:46.569Z,1.30
2019-01-30T00:12:15.993Z,1.30
2019-01-30T00:14:45.398Z,1.30
2019-01-30T00:17:14.839Z,1.30
2019-01-30T00:19:44.251Z,1.30
2019-01-30T00:22:13.767Z,1.30
2019-01-30T00:24:43.149Z,1.30
2019-01-30T00:27:12.810Z,1.30
2019-01-30T00:29:42.724Z,1.30
2019-01-30T00:32:12.153Z,1.30
2019-01-30T00:34:41.565Z,1.20
2019-01-30T00:37:10.994Z,1.20
2019-01-30T00:39:40.406Z,1.30
2019-01-30T00:42:10.066Z,1.30
2019-01-30T00:44:39.749Z,1.30
2019-01-30T00:47:15.746Z,1.30
2019-01-30T00:49:40.487Z,1.30
2019-01-30T00:52:09.914Z,1.20
2019-01-30T00:54:39.341Z,1.20
2019-01-30T00:57:09.063Z,1.20
2019-01-30T00:59:38.737Z,1.30
2019-01-30T01:02:08.161Z,1.20
2019-01-30T01:04:37.569Z,1.20
2019-01-30T01:07:06.990Z,1.20
2019-01-30T01:09:36.419Z,1.20
2019-01-30T01:12:05.894Z,1.20
2019-01-30T01:14:35.319Z,1.20
2019-01-30T01:17:04.777Z,1.20
2019-01-30T01:19:34.198Z,1.20
2019-01-30T01:22:04.696Z,1.20
2019-01-30T01:24:34.941Z,1.20
2019-01-30T01:27:04.597Z,1.20
2019-01-30T01:29:34.010Z,1.10
2019-01-30T01:32:03.501Z,1.20
2019-01-30T01:34:32.918Z,1.10
2019-01-30T01:37:02.329Z,1.10
2019-01-30T01:39:31.943Z,1.20
2019-01-30T01:42:01.358Z,1.20
2019-01-30T01:44:31.050Z,1.10
2019-01-30T01:47:00.499Z,1.10
2019-01-30T01:49:29.962Z,1.10
2019-01-30T01:51:59.374Z,1.10
2019-01-30T01:54:28.789Z,1.10
2019-01-30T01:57:07.989Z,1.10
2019-01-30T01:59:37.417Z,1.10
2019-01-30T02:02:06.868Z,1.10
2019-01-30T02:04:36.278Z,1.10
2019-01-30T02:07:05.685Z,1.10
2019-01-30T02:09:35.102Z,1.10
2019-01-30T02:12:04.539Z,1.10
2019-01-30T02:14:33.973Z,1.10
2019-01-30T02:17:03.385Z,1.10
2019-01-30T02:19:32.815Z,1.10
2019-01-30T02:22:02.258Z,1.10
2019-01-30T02:24:31.705Z,1.00
2019-01-30T02:27:01.206Z,1.10
2019-01-30T02:29:30.633Z,1.10
2019-01-30T02:32:00.182Z,1.10
2019-01-30T02:34:29.631Z,1.10
2019-01-30T02:36:59.295Z,1.10
2019-01-30T02:39:28.692Z,1.10
2019-01-30T02:41:58.126Z,1.20
2019-01-30T02:44:27.554Z,1.10
2019-01-30T02:47:05.697Z,1.10
2019-01-30T02:49:35.235Z,1.10
2019-01-30T02:52:04.661Z,1.10
2019-01-30T02:54:34.106Z,1.10
2019-01-30T02:57:03.554Z,1.10
2019-01-30T02:59:33.429Z,1.10
2019-01-30T03:02:21.670Z,1.00
2019-01-30T03:04:51.101Z,1.00
2019-01-30T03:07:20.553Z,1.00
2019-01-30T03:09:51.057Z,1.00
2019-01-30T03:12:20.507Z,1.00
2019-01-30T03:14:49.920Z,1.00
2019-01-30T03:17:19.354Z,1.00
2019-01-30T03:19:48.809Z,1.00
2019-01-30T03:22:18.454Z,0.90
2019-01-30T03:24:47.873Z,0.90
2019-01-30T03:27:17.321Z,0.90
2019-01-30T03:29:46.752Z,0.90
2019-01-30T03:32:16.186Z,1.00
2019-01-30T03:34:45.623Z,1.00
2019-01-30T03:37:15.054Z,1.00
2019-01-30T03:39:44.474Z,1.00
2019-01-30T03:42:13.881Z,1.00
2019-01-30T03:44:43.314Z,1.00
2019-01-30T03:47:12.807Z,0.90
2019-01-30T03:49:54.598Z,1.00
2019-01-30T03:52:30.329Z,1.00
2019-01-30T03:54:59.776Z,1.00
2019-01-30T03:57:29.588Z,0.90
2019-01-30T03:59:59.026Z,1.00
2019-01-30T04:02:28.477Z,1.00
2019-01-30T04:04:57.903Z,1.00
2019-01-30T04:07:27.329Z,1.10
2019-01-30T04:09:57.744Z,1.10
2019-01-30T04:12:27.165Z,1.10
2019-01-30T04:14:56.633Z,1.10
2019-01-30T04:17:26.270Z,1.10
2019-01-30T04:19:55.741Z,1.10
2019-01-30T04:22:25.173Z,1.10
2019-01-30T04:24:54.609Z,1.10
2019-01-30T04:27:24.013Z,1.10
2019-01-30T04:29:53.417Z,1.10
2019-01-30T04:32:22.837Z,1.10
2019-01-30T04:34:52.253Z,1.10
2019-01-30T04:37:21.853Z,1.10
2019-01-30T04:39:51.303Z,1.10
2019-01-30T04:42:20.722Z,1.10
2019-01-30T04:44:50.141Z,1.10
2019-01-30T04:47:19.582Z,1.10
2019-01-30T04:49:56.137Z,1.20
2019-01-30T04:52:25.555Z,1.20
2019-01-30T04:54:55.041Z,1.20
2019-01-30T04:57:24.510Z,1.20
2019-01-30T04:59:54.023Z,1.10
2019-01-30T05:02:23.655Z,1.20
2019-01-30T05:04:53.100Z,1.20
2019-01-30T05:07:22.510Z,1.20
2019-01-30T05:09:52.029Z,1.20
2019-01-30T05:12:21.441Z,1.20
2019-01-30T05:14:50.872Z,1.20
2019-01-30T05:17:20.309Z,1.20
2019-01-30T05:19:49.730Z,1.20
2019-01-30T05:22:19.157Z,1.30
2019-01-30T05:24:48.579Z,1.20
2019-01-30T05:27:18.038Z,1.30
2019-01-30T05:29:47.523Z,1.30
2019-01-30T05:32:16.933Z,1.30
2019-01-30T05:34:46.369Z,1.30
2019-01-30T05:37:15.816Z,1.30
2019-01-30T05:39:45.262Z,1.30
2019-01-30T05:42:15.200Z,1.30
2019-01-30T05:44:44.633Z,1.30
2019-01-30T05:47:14.081Z,1.30
2019-01-30T05:49:43.860Z,1.30
2019-01-30T05:52:13.472Z,1.20
2019-01-30T05:54:43.373Z,1.20
2019-01-30T05:57:12.813Z,1.20
2019-01-30T05:59:42.462Z,1.20
2019-01-30T06:02:12.581Z,1.20
2019-01-30T06:04:43.183Z,1.20
2019-01-30T06:07:12.683Z,1.20
2019-01-30T06:09:42.381Z,1.20
2019-01-30T06:12:11.809Z,1.30
2019-01-30T06:14:41.254Z,1.30
2019-01-30T06:17:10.698Z,1.30
2019-01-30T06:19:40.481Z,1.40
2019-01-30T06:22:09.922Z,1.40
2019-01-30T06:24:39.639Z,1.40
2019-01-30T06:27:09.109Z,1.50
2019-01-30T06:29:38.526Z,1.50
2019-01-30T06:32:07.963Z,1.60
2019-01-30T06:34:37.418Z,1.60
2019-01-30T06:37:06.878Z,1.60
2019-01-30T06:39:36.329Z,1.60
2019-01-30T06:42:06.142Z,1.60
2019-01-30T06:44:35.584Z,1.60
2019-01-30T06:47:05.124Z,1.60
2019-01-30T06:49:34.549Z,1.70
2019-01-30T06:52:04.157Z,1.70
2019-01-30T06:54:34.207Z,1.70
2019-01-30T06:57:03.677Z,1.70
2019-01-30T06:59:33.756Z,1.70
2019-01-30T07:02:03.186Z,1.70
2019-01-30T07:04:32.781Z,1.70
2019-01-30T07:07:02.226Z,1.70
2019-01-30T07:09:31.881Z,1.80
2019-01-30T07:12:01.319Z,1.70
2019-01-30T07:14:30.765Z,1.80
2019-01-30T07:17:00.191Z,1.80
2019-01-30T07:19:29.616Z,1.80
2019-01-30T07:22:00.139Z,1.80
2019-01-30T07:24:29.566Z,1.80
2019-01-30T07:26:59.006Z,1.80
2019-01-30T07:29:28.529Z,1.80
2019-01-30T07:31:57.965Z,1.80
2019-01-30T07:34:27.424Z,1.80
2019-01-30T07:36:56.838Z,1.80
2019-01-30T07:39:26.569Z,1.80
2019-01-30T07:41:56.023Z,1.80
2019-01-30T07:44:25.480Z,1.80
2019-01-30T07:47:06.849Z,1.80
2019-01-30T07:49:36.509Z,1.80
2019-01-30T07:52:06.118Z,1.80
2019-01-30T07:54:35.533Z,1.80
2019-01-30T07:57:05.256Z,1.80
2019-01-30T07:59:34.704Z,1.80
2019-01-30T08:02:04.125Z,1.80
2019-01-30T08:04:33.621Z,1.80
2019-01-30T08:07:03.252Z,1.80
2019-01-30T08:09:33.725Z,1.80
2019-01-30T08:12:03.259Z,1.80
2019-01-30T08:14:32.678Z,1.80
2019-01-30T08:17:02.097Z,1.90
2019-01-30T08:19:31.529Z,1.90
2019-01-30T08:22:00.960Z,1.80
2019-01-30T08:24:30.706Z,1.80
2019-01-30T08:27:00.771Z,1.80
2019-01-30T08:29:30.718Z,1.70
2019-01-30T08:32:00.623Z,1.70
2019-01-30T08:34:30.150Z,1.60
2019-01-30T08:37:00.665Z,1.60
2019-01-30T08:39:30.115Z,1.70
2019-01-30T08:41:59.554Z,1.70
2019-01-30T08:44:28.990Z,1.70
2019-01-30T08:46:58.443Z,1.80
2019-01-30T08:49:27.870Z,1.80
2019-01-30T08:51:57.368Z,1.80
2019-01-30T08:54:26.860Z,1.70
2019-01-30T08:56:56.301Z,1.80
2019-01-30T08:59:26.075Z,1.80
2019-01-30T09:01:55.518Z,1.80
2019-01-30T09:04:25.919Z,1.80
2019-01-30T09:06:55.413Z,1.80
2019-01-30T09:09:25.183Z,1.70
2019-01-30T09:11:54.782Z,1.70
2019-01-30T09:14:24.218Z,1.70
2019-01-30T09:16:53.654Z,1.70
2019-01-30T09:19:23.089Z,1.70
2019-01-30T09:21:52.549Z,1.70
2019-01-30T09:24:21.991Z,1.70
2019-01-30T09:26:51.474Z,1.80
2019-01-30T09:29:20.926Z,1.80
2019-01-30T09:31:50.355Z,1.70
2019-01-30T09:34:19.789Z,1.80
2019-01-30T09:36:49.256Z,1.80
2019-01-30T09:39:18.728Z,1.70
2019-01-30T09:41:48.179Z,1.80
2019-01-30T09:44:17.611Z,1.80
2019-01-30T09:46:47.185Z,2.00
2019-01-30T09:49:16.677Z,2.00
2019-01-30T09:51:46.128Z,2.00
2019-01-30T09:54:15.614Z,2.10
2019-01-30T09:56:54.936Z,2.10
2019-01-30T09:59:24.379Z,2.10
2019-01-30T10:01:53.924Z,2.20
2019-01-30T10:04:24.463Z,2.20
2019-01-30T10:06:54.077Z,2.20
2019-01-30T10:09:23.489Z,2.30
2019-01-30T10:11:52.933Z,2.30
2019-01-30T10:14:22.344Z,2.30
2019-01-30T10:16:51.809Z,2.30
2019-01-30T10:19:21.499Z,2.40
2019-01-30T10:21:51.022Z,2.50
2019-01-30T10:24:20.442Z,2.50
2019-01-30T10:26:49.885Z,2.60
2019-01-30T10:29:19.333Z,2.60
2019-01-30T10:31:48.805Z,2.70
2019-01-30T10:34:18.210Z,2.70
2019-01-30T10:36:47.636Z,2.70
2019-01-30T10:39:17.114Z,2.70
2019-01-30T10:41:46.546Z,2.70
2019-01-30T10:44:15.977Z,2.70
2019-01-30T10:46:45.404Z,2.70
2019-01-30T10:49:14.825Z,2.70
2019-01-30T10:51:44.363Z,2.70
2019-01-30T10:54:13.785Z,2.80
2019-01-30T10:56:48.762Z,2.70
2019-01-30T10:59:20.626Z,2.60
2019-01-30T11:01:50.102Z,2.60
2019-01-30T11:04:19.562Z,2.60
2019-01-30T11:06:53.742Z,2.60
2019-01-30T11:09:23.198Z,2.60
2019-01-30T11:11:52.697Z,2.70
2019-01-30T11:14:22.121Z,2.70
2019-01-30T11:16:51.610Z,2.80
2019-01-30T11:19:21.027Z,2.90
2019-01-30T11:21:50.539Z,2.90
2019-01-30T11:24:20.089Z,3.00
2019-01-30T11:26:49.520Z,3.00
2019-01-30T11:29:18.957Z,3.10
2019-01-30T11:31:48.409Z,3.20
2019-01-30T11:34:17.829Z,3.30
2019-01-30T11:36:47.301Z,3.30
2019-01-30T11:39:16.725Z,3.40
2019-01-30T11:41:46.161Z,3.30
2019-01-30T11:44:15.598Z,3.30
2019-01-30T11:46:45.016Z,3.20
2019-01-30T11:49:14.502Z,3.30
2019-01-30T11:51:43.965Z,3.30
2019-01-30T11:54:13.462Z,3.20
2019-01-30T11:59:18.299Z,3.10
2019-01-30T12:01:47.751Z,3.10
2019-01-30T12:04:18.213Z,3.10
2019-01-30T12:06:53.775Z,3.00
2019-01-30T12:09:23.554Z,3.10
2019-01-30T12:11:54.246Z,3.10
2019-01-30T12:14:24.845Z,3.10
2019-01-30T12:16:54.505Z,3.20
2019-01-30T12:19:25.055Z,3.10
2019-01-30T12:21:54.521Z,3.20
2019-01-30T12:24:23.946Z,3.10
2019-01-30T12:26:53.396Z,3.10
2019-01-30T12:29:22.817Z,3.10
2019-01-30T12:31:52.282Z,3.20
2019-01-30T12:34:28.065Z,3.20
2019-01-30T12:36:52.857Z,3.20
2019-01-30T12:39:22.300Z,3.20
2019-01-30T12:41:51.773Z,3.20
2019-01-30T12:44:21.213Z,3.20
2019-01-30T12:46:50.640Z,3.40
2019-01-30T12:49:20.066Z,3.40
2019-01-30T12:51:49.594Z,3.40
2019-01-30T12:54:19.037Z,3.30
2019-01-30T12:56:54.738Z,3.30
2019-01-30T12:59:24.220Z,3.20
2019-01-30T13:01:53.683Z,3.30
2019-01-30T13:04:23.167Z,3.40
2019-01-30T13:06:52.810Z,3.50
2019-01-30T13:09:22.245Z,3.60
2019-01-30T13:11:51.685Z,3.70
2019-01-30T13:14:21.125Z,3.60
2019-01-30T13:16:50.583Z,3.50
2019-01-30T13:19:20.026Z,3.60
2019-01-30T13:21:49.470Z,3.70
2019-01-30T13:24:18.914Z,3.70
2019-01-30T13:26:48.337Z,3.70
2019-01-30T13:29:17.765Z,3.70
2019-01-30T13:31:47.209Z,3.70
2019-01-30T13:34:16.633Z,3.70
2019-01-30T13:36:46.093Z,3.70
2019-01-30T13:39:15.538Z,3.60
2019-01-30T13:41:44.991Z,3.60
2019-01-30T13:44:14.413Z,3.50
2019-01-30T13:46:43.861Z,3.40
2019-01-30T13:49:13.299Z,3.40
2019-01-30T13:51:42.754Z,3.40
2019-01-30T13:54:12.181Z,3.40
2019-01-30T13:56:47.596Z,3.40
2019-01-30T14:02:10.206Z,3.40
2019-01-30T14:04:39.751Z,3.40
2019-01-30T14:07:09.733Z,3.30
2019-01-30T14:09:39.232Z,3.30
2019-01-30T14:12:08.631Z,3.30
2019-01-30T14:14:38.206Z,3.30
2019-01-30T14:17:07.681Z,3.30
2019-01-30T14:19:37.145Z,3.40
2019-01-30T14:22:06.670Z,3.40
2019-01-30T14:24:36.227Z,3.50
2019-01-30T14:27:05.663Z,3.60
2019-01-30T14:29:35.167Z,3.60
2019-01-30T14:32:04.654Z,3.70
2019-01-30T14:34:34.098Z,3.70
2019-01-30T14:37:03.697Z,3.70
2019-01-30T14:39:33.195Z,3.70
2019-01-30T14:42:02.639Z,3.60
2019-01-30T14:44:32.074Z,3.60
2019-01-30T14:47:01.499Z,3.60
2019-01-30T14:49:30.957Z,3.60
2019-01-30T14:52:00.481Z,3.60
2019-01-30T14:54:29.927Z,3.60
2019-01-30T14:56:59.785Z,3.60
2019-01-30T14:59:41.974Z,3.60
2019-01-30T15:02:17.547Z,3.60
2019-01-30T15:04:46.977Z,3.60
2019-01-30T15:07:16.505Z,3.60
2019-01-30T15:09:45.971Z,3.60
2019-01-30T15:12:15.451Z,3.50
2019-01-30T15:14:44.880Z,3.40
2019-01-30T15:17:14.305Z,3.40
2019-01-30T15:19:43.751Z,3.30
2019-01-30T15:22:13.233Z,3.30
2019-01-30T15:24:42.653Z,3.20
2019-01-30T15:27:12.105Z,3.20
2019-01-30T15:29:41.521Z,3.20
2019-01-30T15:32:10.949Z,3.10
2019-01-30T15:34:40.381Z,3.10
2019-01-30T15:37:09.807Z,3.10
2019-01-30T15:39:39.250Z,3.10
2019-01-30T15:42:08.711Z,3.10
2019-01-30T15:44:38.127Z,3.10
2019-01-30T15:47:07.646Z,3.10
2019-01-30T15:49:37.069Z,3.10
2019-01-30T15:52:06.518Z,3.10
2019-01-30T15:54:35.970Z,3.00
2019-01-30T15:57:05.646Z,3.10
2019-01-30T15:59:36.526Z,3.10
2019-01-30T16:02:06.757Z,3.10
2019-01-30T16:04:36.234Z,3.20
2019-01-30T16:07:06.008Z,3.10
2019-01-30T16:09:35.459Z,3.10
2019-01-30T16:12:04.908Z,3.20
2019-01-30T16:14:34.325Z,3.20
2019-01-30T16:17:03.742Z,3.20
2019-01-30T16:19:34.249Z,3.10
2019-01-30T16:22:03.786Z,2.90
2019-01-30T16:24:33.205Z,2.70
2019-01-30T16:27:03.860Z,2.70
2019-01-30T16:29:33.298Z,2.70
2019-01-30T16:32:02.768Z,2.70
2019-01-30T16:34:32.226Z,2.70
2019-01-30T16:37:01.666Z,2.70
2019-01-30T16:39:31.116Z,2.60
2019-01-30T16:42:00.551Z,2.60
2019-01-30T16:44:30.003Z,2.50
2019-01-30T16:46:59.522Z,2.50
2019-01-30T16:49:29.030Z,2.40
2019-01-30T16:51:58.487Z,2.40
2019-01-30T16:54:27.954Z,2.40
2019-01-30T16:56:57.716Z,2.30
2019-01-30T16:59:38.008Z,2.30
2019-01-30T17:02:07.497Z,2.30
2019-01-30T17:04:36.930Z,2.40
2019-01-30T17:07:06.762Z,2.40
2019-01-30T17:09:36.217Z,2.40
2019-01-30T17:12:05.663Z,2.30
2019-01-30T17:14:35.089Z,2.20
2019-01-30T17:17:04.566Z,2.20
2019-01-30T17:19:34.082Z,2.20
2019-01-30T17:22:03.534Z,2.20
2019-01-30T17:24:33.272Z,2.10
2019-01-30T17:27:02.693Z,2.10
2019-01-30T17:29:32.154Z,2.10
2019-01-30T17:32:01.568Z,2.10
2019-01-30T17:34:31.978Z,2.10
2019-01-30T17:37:01.450Z,2.10
2019-01-30T17:39:30.953Z,2.10
2019-01-30T17:42:00.818Z,2.20
2019-01-30T17:44:30.515Z,2.20
2019-01-30T17:47:00.043Z,2.30
2019-01-30T17:49:29.467Z,2.50
2019-01-30T17:51:58.910Z,2.60
2019-01-30T17:54:28.335Z,2.70
2019-01-30T17:56:57.790Z,2.70
2019-01-30T17:59:38.548Z,2.80
2019-01-30T18:02:10.487Z,2.80
2019-01-30T18:04:40.020Z,2.90
2019-01-30T18:07:09.529Z,2.80
2019-01-30T18:09:39.338Z,2.90
2019-01-30T18:12:08.795Z,2.90
2019-01-30T18:14:38.270Z,2.80
2019-01-30T18:17:07.703Z,2.80
2019-01-30T18:19:37.181Z,2.90
2019-01-30T18:22:07.618Z,2.80
2019-01-30T18:24:37.064Z,2.90
2019-01-30T18:27:07.780Z,2.90
2019-01-30T18:29:37.193Z,2.90
2019-01-30T18:32:06.642Z,2.90
2019-01-30T18:34:36.086Z,3.00
2019-01-30T18:37:05.518Z,3.00
2019-01-30T18:39:38.762Z,2.90
2019-01-30T18:42:08.240Z,3.00
2019-01-30T18:44:37.879Z,3.00
2019-01-30T18:47:07.340Z,3.00
2019-01-30T18:49:36.828Z,3.00
2019-01-30T18:52:06.305Z,3.10
2019-01-30T18:54:35.723Z,3.20
2019-01-30T18:57:05.235Z,3.20
2019-01-30T18:59:34.758Z,3.20
2019-01-30T19:02:04.188Z,3.10
2019-01-30T19:04:33.601Z,3.10
2019-01-30T19:07:04.281Z,3.00
2019-01-30T19:09:34.010Z,3.00
2019-01-30T19:12:03.413Z,3.00
2019-01-30T19:14:32.830Z,3.00
2019-01-30T19:17:02.259Z,3.00
2019-01-30T19:19:31.726Z,3.10
2019-01-30T19:22:01.196Z,3.20
2019-01-30T19:24:30.617Z,3.30
2019-01-30T19:27:00.038Z,3.10
2019-01-30T19:29:29.475Z,2.90
2019-01-30T19:31:58.944Z,2.70
2019-01-30T19:34:28.413Z,2.50
2019-01-30T19:39:33.364Z,2.50
2019-01-30T19:42:02.994Z,2.50
2019-01-30T19:44:32.785Z,2.50
2019-01-30T19:47:02.318Z,2.50
2019-01-30T19:49:31.930Z,2.50
2019-01-30T19:52:01.348Z,2.60
2019-01-30T19:54:30.809Z,2.60
2019-01-30T19:57:00.701Z,2.60
2019-01-30T19:59:30.159Z,2.70
2019-01-30T20:01:59.606Z,2.70
2019-01-30T20:04:29.039Z,2.70
2019-01-30T20:09:40.110Z,2.80
2019-01-30T20:12:09.677Z,2.80
2019-01-30T20:14:39.269Z,2.80
2019-01-30T20:17:08.922Z,2.80
2019-01-30T20:19:38.401Z,2.90
2019-01-30T20:22:08.077Z,2.80
2019-01-30T20:24:37.508Z,2.80
2019-01-30T20:27:06.921Z,2.80
2019-01-30T20:29:36.397Z,2.80
2019-01-30T20:32:05.860Z,2.90
2019-01-30T20:34:40.563Z,2.80
2019-01-30T20:37:10.141Z,2.90
2019-01-30T20:39:39.562Z,2.90
2019-01-30T20:42:09.029Z,2.90
2019-01-30T20:44:38.608Z,2.90
2019-01-30T20:47:08.300Z,2.80
2019-01-30T20:49:37.738Z,2.80
2019-01-30T20:52:07.187Z,2.70
2019-01-30T20:54:36.630Z,2.70
2019-01-30T20:57:06.062Z,2.60
2019-01-30T20:59:35.523Z,2.50
2019-01-30T21:02:22.065Z,2.60
2019-01-30T21:04:51.557Z,2.60
2019-01-30T21:07:23.225Z,2.60
2019-01-30T21:09:56.673Z,2.60
2019-01-30T21:12:26.089Z,2.60
2019-01-30T21:14:55.527Z,2.50
2019-01-30T21:17:24.943Z,2.60
2019-01-30T21:19:54.385Z,2.50
2019-01-30T21:22:23.799Z,2.60
2019-01-30T21:24:53.225Z,2.60
2019-01-30T21:27:22.677Z,2.60
2019-01-30T21:29:52.110Z,2.60
2019-01-30T21:32:21.542Z,2.60
2019-01-30T21:34:50.946Z,2.60
2019-01-30T21:37:20.676Z,2.50
2019-01-30T21:39:50.258Z,2.50
2019-01-30T21:42:19.694Z,2.50
2019-01-30T21:45:03.533Z,2.50
2019-01-30T21:47:33.034Z,2.50
2019-01-30T21:50:02.534Z,2.40
2019-01-30T21:52:32.046Z,2.30
2019-01-30T21:55:01.459Z,2.30
2019-01-30T21:57:30.893Z,2.20
2019-01-30T22:00:00.342Z,2.20
2019-01-30T22:02:30.007Z,2.10
2019-01-30T22:04:59.597Z,2.10
2019-01-30T22:07:29.014Z,2.00
2019-01-30T22:09:58.414Z,2.00
2019-01-30T22:12:27.817Z,2.00
2019-01-30T22:14:57.231Z,2.00
2019-01-30T22:17:26.917Z,2.00
2019-01-30T22:19:56.358Z,1.90
2019-01-30T22:22:25.955Z,1.90
2019-01-30T22:24:55.378Z,1.90
2019-01-30T22:27:24.789Z,1.90
2019-01-30T22:29:54.223Z,1.90
2019-01-30T22:32:23.637Z,1.90
2019-01-30T22:34:53.398Z,1.90
2019-01-30T22:37:23.084Z,2.00
2019-01-30T22:39:52.569Z,2.00
2019-01-30T22:42:21.988Z,2.00
2019-01-30T22:44:51.545Z,2.00
2019-01-30T22:47:21.297Z,2.00
2019-01-30T22:49:50.716Z,2.00
2019-01-30T22:52:20.128Z,1.90
2019-01-30T22:54:49.545Z,1.80
2019-01-30T22:57:18.971Z,1.80
2019-01-30T22:59:48.403Z,1.70
2019-01-30T23:02:17.962Z,1.60
2019-01-30T23:05:18.310Z,1.60
2019-01-30T23:08:02.153Z,1.50
2019-01-30T23:11:00.725Z,1.50
2019-01-30T23:13:40.364Z,1.40
2019-01-30T23:19:54.106Z,1.30
2019-01-30T23:23:20.501Z,1.20
2019-01-30T23:26:07.404Z,1.10
2019-01-30T23:29:17.434Z,1.10
2019-01-30T23:32:39.128Z,1.10
2019-01-30T23:35:39.246Z,1.00
2019-01-30T23:38:34.266Z,1.00
2019-01-30T23:41:14.295Z,1.00
2019-01-30T23:43:57.921Z,1.00
2019-01-30T23:46:57.618Z,1.00
2019-01-30T23:49:59.055Z,1.00
2019-01-30T23:53:08.866Z,1.00
2019-01-30T23:56:00.477Z,1.00
2019-01-30T23:59:14.637Z,1.00
